createdAt,value
2022-11-14T00:00:52.695Z,4.130249
2022-11-14T00:02:01.367Z,4.160461
2022-11-14T00:03:09.192Z,4.200745
2022-11-14T00:04:18.834Z,4.200745
2022-11-14T00:05:29.491Z,4.200745
2022-11-14T00:06:39.178Z,4.190674
2022-11-14T00:07:48.890Z,4.170532
2022-11-14T00:08:58.572Z,4.170532
2022-11-14T00:10:08.261Z,4.130249
2022-11-14T00:11:16.990Z,4.079895
2022-11-14T00:12:26.817Z,4.059753
2022-11-14T00:13:36.381Z,4.079895
2022-11-14T00:14:45.057Z,4.059753
2022-11-14T00:15:54.754Z,4.049683
2022-11-14T00:17:02.565Z,4.049683
2022-11-14T00:18:11.227Z,4.039612
2022-11-14T00:19:20.899Z,4.039612
2022-11-14T00:20:29.645Z,4.059753
2022-11-14T00:21:39.330Z,4.079895
2022-11-14T00:22:48.043Z,4.100037
2022-11-14T00:23:56.726Z,4.079895
2022-11-14T00:25:06.415Z,4.059753
2022-11-14T00:26:15.089Z,4.120178
2022-11-14T00:27:23.781Z,4.130249
2022-11-14T00:28:33.799Z,4.14032
2022-11-14T00:29:42.180Z,4.120178
2022-11-14T00:30:51.852Z,4.120178
2022-11-14T00:32:00.523Z,4.079895
2022-11-14T00:33:09.211Z,4.079895
2022-11-14T00:34:19.879Z,4.049683
2022-11-14T00:35:27.551Z,4.049683
2022-11-14T00:36:36.212Z,4.039612
2022-11-14T00:37:45.881Z,4.039612
2022-11-14T00:38:54.546Z,4.039612
2022-11-14T00:40:04.236Z,4.01947
2022-11-14T00:41:13.928Z,4.01947
2022-11-14T00:42:21.668Z,4.009399
2022-11-14T00:43:31.295Z,4.009399
2022-11-14T00:44:41.091Z,4.009399
2022-11-14T00:45:50.698Z,3.908691
2022-11-14T00:47:00.368Z,3.858337
2022-11-14T00:48:08.068Z,3.878479
2022-11-14T00:49:17.741Z,3.908691
2022-11-14T00:50:26.406Z,3.908691
2022-11-14T00:51:36.097Z,3.908691
2022-11-14T00:52:45.768Z,3.908691
2022-11-14T00:53:55.435Z,3.918762
2022-11-14T00:55:05.099Z,3.938904
2022-11-14T00:56:14.766Z,3.959045
2022-11-14T00:57:22.451Z,3.989258
2022-11-14T00:58:32.305Z,4.039612
2022-11-14T00:59:41.821Z,4.059753
2022-11-14T01:00:49.703Z,4.079895
2022-11-14T01:01:58.283Z,4.100037
2022-11-14T01:03:05.892Z,4.130249
2022-11-14T01:04:15.567Z,4.130249
2022-11-14T01:05:25.252Z,4.14032
2022-11-14T01:06:33.933Z,4.190674
2022-11-14T01:07:43.611Z,4.220886
2022-11-14T01:08:53.489Z,4.100037
2022-11-14T01:10:01.099Z,3.989258
2022-11-14T01:11:10.774Z,3.989258
2022-11-14T01:12:19.432Z,4.009399
2022-11-14T01:13:28.098Z,3.979187
2022-11-14T01:14:37.793Z,3.959045
2022-11-14T01:15:45.475Z,3.938904
2022-11-14T01:16:54.267Z,3.878479
2022-11-14T01:18:03.884Z,3.868408
2022-11-14T01:19:11.517Z,3.878479
2022-11-14T01:20:21.331Z,3.858337
2022-11-14T01:21:29.002Z,3.828125
2022-11-14T01:22:37.658Z,3.807983
2022-11-14T01:23:47.335Z,3.838196
2022-11-14T01:24:56.050Z,3.868408
2022-11-14T01:26:05.755Z,3.868408
2022-11-14T01:27:14.427Z,3.828125
2022-11-14T01:28:22.089Z,3.7677
2022-11-14T01:29:31.783Z,3.727417
2022-11-14T01:30:39.439Z,3.697205
2022-11-14T01:31:49.141Z,3.697205
2022-11-14T01:32:57.942Z,3.687134
2022-11-14T01:34:06.529Z,3.646851
2022-11-14T01:35:16.197Z,3.646851
2022-11-14T01:36:25.885Z,3.677063
2022-11-14T01:37:34.580Z,3.646851
2022-11-14T01:38:44.263Z,3.646851
2022-11-14T01:39:52.936Z,3.677063
2022-11-14T01:41:01.608Z,3.677063
2022-11-14T01:42:11.341Z,3.697205
2022-11-14T01:43:21.023Z,3.687134
2022-11-14T01:44:30.702Z,3.687134
2022-11-14T01:45:39.377Z,3.677063
2022-11-14T01:46:47.061Z,3.656921
2022-11-14T01:47:56.766Z,3.656921
2022-11-14T01:49:05.614Z,3.697205
2022-11-14T01:50:15.183Z,3.727417
2022-11-14T01:51:24.946Z,3.737488
2022-11-14T01:52:32.681Z,3.737488
2022-11-14T01:53:42.372Z,3.697205
2022-11-14T01:54:51.076Z,3.697205
2022-11-14T01:56:00.764Z,3.737488
2022-11-14T01:57:10.444Z,3.626709
2022-11-14T01:58:19.125Z,3.616638
2022-11-14T01:59:27.803Z,3.576355
2022-11-14T02:00:37.508Z,3.546143
2022-11-14T02:01:46.312Z,3.475647
2022-11-14T02:02:56.035Z,3.475647
2022-11-14T02:04:06.612Z,3.465576
2022-11-14T02:05:15.496Z,3.475647
2022-11-14T02:06:25.081Z,3.465576
2022-11-14T02:07:33.807Z,3.465576
2022-11-14T02:08:43.422Z,3.475647
2022-11-14T02:09:52.106Z,3.465576
2022-11-14T02:11:00.778Z,3.435364
2022-11-14T02:12:10.498Z,3.445435
2022-11-14T02:13:18.169Z,3.465576
2022-11-14T02:14:27.840Z,3.465576
2022-11-14T02:15:36.509Z,3.445435
2022-11-14T02:16:55.620Z,3.495789
2022-11-14T02:17:54.819Z,3.556213
2022-11-14T02:19:02.491Z,3.526001
2022-11-14T02:20:12.230Z,3.526001
2022-11-14T02:21:21.984Z,3.526001
2022-11-14T02:22:31.540Z,3.505859
2022-11-14T02:23:41.266Z,3.505859
2022-11-14T02:24:50.961Z,3.526001
2022-11-14T02:25:59.639Z,3.556213
2022-11-14T02:27:09.311Z,3.546143
2022-11-14T02:28:17.981Z,3.576355
2022-11-14T02:29:27.742Z,3.556213
2022-11-14T02:30:37.440Z,3.505859
2022-11-14T02:31:47.178Z,3.435364
2022-11-14T02:33:10.303Z,3.415222
2022-11-14T02:34:07.488Z,3.445435
2022-11-14T02:35:15.157Z,3.475647
2022-11-14T02:36:24.853Z,3.495789
2022-11-14T02:37:34.514Z,3.475647
2022-11-14T02:38:44.203Z,3.495789
2022-11-14T02:39:53.886Z,3.475647
2022-11-14T02:41:02.573Z,3.465576
2022-11-14T02:42:12.255Z,3.495789
2022-11-14T02:43:20.947Z,3.495789
2022-11-14T02:44:28.683Z,3.495789
2022-11-14T02:45:37.364Z,3.505859
2022-11-14T02:46:45.056Z,3.526001
2022-11-14T02:47:53.740Z,3.505859
2022-11-14T02:49:03.440Z,3.546143
2022-11-14T02:50:12.112Z,3.505859
2022-11-14T02:51:21.785Z,3.526001
2022-11-14T02:52:30.594Z,3.526001
2022-11-14T02:53:39.191Z,3.546143
2022-11-14T02:54:53.268Z,3.576355
2022-11-14T02:55:58.513Z,3.576355
2022-11-14T02:57:07.185Z,3.586426
2022-11-14T02:58:15.874Z,3.586426
2022-11-14T02:59:24.544Z,3.576355
2022-11-14T03:00:34.295Z,3.586426
2022-11-14T03:01:44.936Z,3.596497
2022-11-14T03:02:52.563Z,3.596497
2022-11-14T03:04:01.277Z,3.616638
2022-11-14T03:05:09.959Z,3.596497
2022-11-14T03:06:19.635Z,3.646851
2022-11-14T03:07:29.366Z,3.646851
2022-11-14T03:08:37.134Z,3.646851
2022-11-14T03:09:46.693Z,3.656921
2022-11-14T03:10:55.439Z,3.677063
2022-11-14T03:12:04.123Z,3.687134
2022-11-14T03:13:13.804Z,3.697205
2022-11-14T03:14:21.476Z,3.727417
2022-11-14T03:15:30.179Z,3.727417
2022-11-14T03:16:39.892Z,3.737488
2022-11-14T03:17:48.561Z,3.687134
2022-11-14T03:18:58.236Z,3.656921
2022-11-14T03:20:06.908Z,3.646851
2022-11-14T03:21:14.600Z,3.646851
2022-11-14T03:22:24.279Z,3.626709
2022-11-14T03:23:31.948Z,3.626709
2022-11-14T03:24:40.748Z,3.616638
2022-11-14T03:25:50.306Z,3.616638
2022-11-14T03:26:59.024Z,3.626709
2022-11-14T03:28:08.689Z,3.656921
2022-11-14T03:29:17.360Z,3.646851
2022-11-14T03:30:25.029Z,3.626709
2022-11-14T03:31:34.756Z,3.616638
2022-11-14T03:32:43.441Z,3.616638
2022-11-14T03:33:52.246Z,3.596497
2022-11-14T03:35:01.936Z,3.596497
2022-11-14T03:36:10.617Z,3.616638
2022-11-14T03:37:20.285Z,3.626709
2022-11-14T03:38:29.306Z,3.626709
2022-11-14T03:39:36.682Z,3.626709
2022-11-14T03:40:46.468Z,3.677063
2022-11-14T03:41:56.033Z,3.687134
2022-11-14T03:43:05.717Z,3.687134
2022-11-14T03:44:15.401Z,3.697205
2022-11-14T03:45:25.157Z,3.737488
2022-11-14T03:46:34.872Z,3.727417
2022-11-14T03:47:44.583Z,3.737488
2022-11-14T03:48:53.247Z,3.737488
2022-11-14T03:50:02.952Z,3.7677
2022-11-14T03:51:11.634Z,3.797913
2022-11-14T03:52:20.293Z,3.807983
2022-11-14T03:53:29.970Z,3.828125
2022-11-14T03:54:39.646Z,3.797913
2022-11-14T03:55:49.468Z,3.797913
2022-11-14T03:56:59.034Z,3.777771
2022-11-14T03:58:08.739Z,3.757629
2022-11-14T03:59:18.411Z,3.697205
2022-11-14T04:00:27.086Z,3.727417
2022-11-14T04:01:35.781Z,3.727417
2022-11-14T04:02:45.467Z,3.737488
2022-11-14T04:03:55.144Z,3.757629
2022-11-14T04:05:04.800Z,3.737488
2022-11-14T04:06:13.550Z,3.737488
2022-11-14T04:07:23.420Z,3.757629
2022-11-14T04:08:33.483Z,3.737488
2022-11-14T04:09:41.672Z,3.677063
2022-11-14T04:10:51.387Z,3.646851
2022-11-14T04:12:00.230Z,3.656921
2022-11-14T04:13:09.800Z,3.646851
2022-11-14T04:14:19.471Z,3.656921
2022-11-14T04:15:29.145Z,3.656921
2022-11-14T04:16:38.818Z,3.677063
2022-11-14T04:17:47.500Z,3.626709
2022-11-14T04:18:55.221Z,3.646851
2022-11-14T04:20:04.898Z,3.646851
2022-11-14T04:21:14.635Z,3.616638
2022-11-14T04:22:23.297Z,3.626709
2022-11-14T04:23:32.979Z,3.626709
2022-11-14T04:24:40.676Z,3.626709
2022-11-14T04:25:50.378Z,3.626709
2022-11-14T04:26:59.044Z,3.616638
2022-11-14T04:28:06.748Z,3.626709
2022-11-14T04:29:16.384Z,3.616638
2022-11-14T04:30:25.688Z,3.646851
2022-11-14T04:31:35.338Z,3.656921
2022-11-14T04:32:45.012Z,3.677063
2022-11-14T04:33:54.674Z,3.656921
2022-11-14T04:35:04.330Z,3.677063
2022-11-14T04:36:14.032Z,3.656921
2022-11-14T04:37:22.702Z,3.656921
2022-11-14T04:38:32.657Z,3.646851
2022-11-14T04:39:40.099Z,3.656921
2022-11-14T04:40:48.772Z,3.677063
2022-11-14T04:41:58.474Z,3.677063
2022-11-14T04:43:06.167Z,3.646851
2022-11-14T04:44:15.970Z,3.656921
2022-11-14T04:45:25.631Z,3.646851
2022-11-14T04:46:33.189Z,3.626709
2022-11-14T04:47:42.895Z,3.626709
2022-11-14T04:48:52.574Z,3.626709
2022-11-14T04:50:01.268Z,3.616638
2022-11-14T04:51:10.911Z,3.576355
2022-11-14T04:52:19.570Z,3.526001
2022-11-14T04:53:29.288Z,3.475647
2022-11-14T04:54:37.971Z,3.435364
2022-11-14T04:55:46.646Z,3.445435
2022-11-14T04:56:56.314Z,3.445435
2022-11-14T04:58:04.992Z,3.465576
2022-11-14T04:59:16.964Z,3.465576
2022-11-14T05:00:23.363Z,3.445435
2022-11-14T05:01:32.114Z,3.415222
2022-11-14T05:02:41.704Z,3.395081
2022-11-14T05:03:50.390Z,3.405151
2022-11-14T05:04:59.108Z,3.415222
2022-11-14T05:06:08.787Z,3.415222
2022-11-14T05:07:17.555Z,3.405151
2022-11-14T05:08:26.133Z,3.405151
2022-11-14T05:09:35.822Z,3.374939
2022-11-14T05:10:45.539Z,3.395081
2022-11-14T05:11:55.186Z,3.374939
2022-11-14T05:13:03.856Z,3.374939
2022-11-14T05:14:11.533Z,3.395081
2022-11-14T05:15:21.223Z,3.395081
2022-11-14T05:16:29.910Z,3.395081
2022-11-14T05:17:39.601Z,3.374939
2022-11-14T05:18:49.261Z,3.364868
2022-11-14T05:19:57.939Z,3.314514
2022-11-14T05:21:07.609Z,3.284302
2022-11-14T05:22:16.299Z,3.26416
2022-11-14T05:23:23.987Z,3.294373
2022-11-14T05:24:33.655Z,3.294373
2022-11-14T05:25:41.310Z,3.254089
2022-11-14T05:26:50.017Z,3.223877
2022-11-14T05:27:59.735Z,3.233948
2022-11-14T05:29:08.407Z,3.223877
2022-11-14T05:30:18.091Z,3.254089
2022-11-14T05:31:27.766Z,3.223877
2022-11-14T05:32:36.446Z,3.213806
2022-11-14T05:33:46.288Z,3.183594
2022-11-14T05:34:55.932Z,3.163452
2022-11-14T05:36:05.592Z,3.143311
2022-11-14T05:37:15.258Z,3.113098
2022-11-14T05:38:23.946Z,3.072815
2022-11-14T05:39:33.628Z,3.052673
2022-11-14T05:40:42.317Z,3.042603
2022-11-14T05:41:51.015Z,3.002319
2022-11-14T05:42:59.701Z,2.951965
2022-11-14T05:44:07.404Z,2.891541
2022-11-14T05:45:16.104Z,2.861328
2022-11-14T05:46:25.791Z,2.871399
2022-11-14T05:47:34.505Z,2.861328
2022-11-14T05:48:44.229Z,2.871399
2022-11-14T05:49:53.939Z,2.871399
2022-11-14T05:51:03.611Z,2.871399
2022-11-14T05:52:13.331Z,2.871399
2022-11-14T05:53:21.015Z,2.921753
2022-11-14T05:54:29.736Z,2.931824
2022-11-14T05:55:39.480Z,2.951965
2022-11-14T05:56:47.205Z,2.931824
2022-11-14T05:57:56.927Z,2.972107
2022-11-14T05:59:06.627Z,2.982178
2022-11-14T06:00:14.359Z,3.002319
2022-11-14T06:01:24.064Z,2.921753
2022-11-14T06:02:32.847Z,2.851257
2022-11-14T06:03:41.479Z,2.720337
2022-11-14T06:04:51.209Z,2.669983
2022-11-14T06:05:59.922Z,2.619629
2022-11-14T06:07:09.727Z,2.569275
2022-11-14T06:08:20.317Z,2.488708
2022-11-14T06:09:30.001Z,2.468567
2022-11-14T06:10:38.785Z,2.428284
2022-11-14T06:11:47.514Z,2.428284
2022-11-14T06:12:57.207Z,2.428284
2022-11-14T06:14:09.701Z,2.458496
2022-11-14T06:15:13.561Z,2.438354
2022-11-14T06:16:23.307Z,2.428284
2022-11-14T06:17:30.980Z,2.428284
2022-11-14T06:18:40.661Z,2.468567
2022-11-14T06:19:50.475Z,2.388
2022-11-14T06:21:00.219Z,2.347717
2022-11-14T06:22:09.964Z,2.327576
2022-11-14T06:23:24.565Z,2.327576
2022-11-14T06:24:28.454Z,2.317505
2022-11-14T06:25:37.204Z,2.287292
2022-11-14T06:26:46.902Z,2.25708
2022-11-14T06:27:56.582Z,2.25708
2022-11-14T06:29:05.282Z,2.428284
2022-11-14T06:30:14.062Z,2.488708
2022-11-14T06:31:23.861Z,2.468567
2022-11-14T06:32:32.549Z,2.498779
2022-11-14T06:33:42.238Z,2.488708
2022-11-14T06:34:51.941Z,2.50885
2022-11-14T06:36:00.688Z,2.528992
2022-11-14T06:37:10.491Z,2.569275
2022-11-14T06:38:20.243Z,2.599487
2022-11-14T06:39:29.957Z,2.619629
2022-11-14T06:40:39.648Z,2.619629
2022-11-14T06:41:47.378Z,2.680054
2022-11-14T06:42:56.159Z,2.720337
2022-11-14T06:44:05.897Z,2.750549
2022-11-14T06:45:13.606Z,2.770691
2022-11-14T06:46:23.355Z,2.790833
2022-11-14T06:47:32.045Z,2.750549
2022-11-14T06:48:40.764Z,2.750549
2022-11-14T06:49:50.453Z,2.750549
2022-11-14T06:50:58.174Z,2.790833
2022-11-14T06:52:06.888Z,2.800903
2022-11-14T06:53:16.586Z,2.790833
2022-11-14T06:54:25.334Z,2.831116
2022-11-14T06:55:34.983Z,2.861328
2022-11-14T06:56:43.712Z,2.901611
2022-11-14T06:57:51.436Z,2.951965
2022-11-14T06:59:01.127Z,2.982178
2022-11-14T07:00:09.880Z,3.052673
2022-11-14T07:01:19.565Z,3.082886
2022-11-14T07:02:29.293Z,3.143311
2022-11-14T07:03:38.000Z,3.223877
2022-11-14T07:04:47.679Z,3.314514
2022-11-14T07:05:56.426Z,3.314514
2022-11-14T07:07:05.161Z,3.314514
2022-11-14T07:08:18.494Z,3.314514
2022-11-14T07:09:24.479Z,3.294373
2022-11-14T07:10:33.264Z,3.374939
2022-11-14T07:11:42.978Z,3.505859
2022-11-14T07:12:50.650Z,3.697205
2022-11-14T07:14:00.320Z,3.908691
2022-11-14T07:15:08.998Z,4.059753
2022-11-14T07:16:17.681Z,4.230957
2022-11-14T07:17:31.114Z,4.371948
2022-11-14T07:18:37.090Z,4.281311
2022-11-14T07:19:45.852Z,4.301453
2022-11-14T07:20:55.536Z,4.341736
2022-11-14T07:22:03.257Z,4.321594
2022-11-14T07:23:13.115Z,4.311523
2022-11-14T07:24:22.773Z,4.341736
2022-11-14T07:25:30.459Z,4.412231
2022-11-14T07:26:40.173Z,4.502869
2022-11-14T07:27:49.892Z,4.664001
2022-11-14T07:29:02.309Z,4.815063
2022-11-14T07:30:08.296Z,4.986267
2022-11-14T07:31:17.052Z,5.066833
2022-11-14T07:32:26.743Z,4.956055
2022-11-14T07:33:35.459Z,4.784851
2022-11-14T07:34:43.208Z,4.835205
2022-11-14T07:35:52.933Z,4.89563
2022-11-14T07:37:02.612Z,5.076904
2022-11-14T07:38:11.294Z,5.248108
2022-11-14T07:39:20.995Z,5.328674
2022-11-14T07:40:29.932Z,5.409241
2022-11-14T07:41:39.597Z,5.227966
2022-11-14T07:42:48.350Z,4.956055
2022-11-14T07:43:57.073Z,4.935913
2022-11-14T07:45:06.765Z,4.966125
2022-11-14T07:46:14.463Z,5.016479
2022-11-14T07:47:24.226Z,5.107117
2022-11-14T07:48:33.990Z,5.328674
2022-11-14T07:49:41.613Z,5.570374
2022-11-14T07:50:51.282Z,5.751648
2022-11-14T07:52:00.134Z,6.043701
2022-11-14T07:53:07.817Z,6.27533
2022-11-14T07:54:17.540Z,6.617737
2022-11-14T07:55:26.227Z,6.718445
2022-11-14T07:56:34.921Z,6.637878
2022-11-14T07:57:48.932Z,6.517029
2022-11-14T07:58:54.366Z,6.567383
2022-11-14T08:00:04.030Z,6.738586
2022-11-14T08:01:12.807Z,6.889648
2022-11-14T08:02:20.425Z,6.990356
2022-11-14T08:03:30.139Z,6.839294
2022-11-14T08:04:39.811Z,6.879578
2022-11-14T08:05:49.503Z,6.879578
2022-11-14T08:06:58.239Z,6.889648
2022-11-14T08:08:06.928Z,7.000427
2022-11-14T08:09:16.691Z,7.050781
2022-11-14T08:10:24.377Z,7.181702
2022-11-14T08:11:35.301Z,7.352905
2022-11-14T08:12:43.783Z,7.211914
2022-11-14T08:13:54.490Z,7.131348
2022-11-14T08:15:04.247Z,7.060852
2022-11-14T08:16:14.341Z,7.181702
2022-11-14T08:17:23.562Z,7.29248
2022-11-14T08:18:33.245Z,7.54425
2022-11-14T08:19:41.945Z,7.695312
2022-11-14T08:20:51.648Z,7.655029
2022-11-14T08:22:01.355Z,7.604675
2022-11-14T08:23:09.041Z,7.655029
2022-11-14T08:24:18.737Z,7.715454
2022-11-14T08:25:26.426Z,7.78595
2022-11-14T08:26:35.230Z,7.816162
2022-11-14T08:27:44.970Z,7.695312
2022-11-14T08:28:52.657Z,7.483826
2022-11-14T08:30:02.383Z,7.473755
2022-11-14T08:31:12.097Z,7.715454
2022-11-14T08:32:21.852Z,8.027649
2022-11-14T08:33:31.547Z,8.198853
2022-11-14T08:34:40.252Z,8.42041
2022-11-14T08:35:48.956Z,8.561401
2022-11-14T08:36:57.659Z,8.702393
2022-11-14T08:38:06.376Z,8.843384
2022-11-14T08:39:16.057Z,8.92395
2022-11-14T08:40:24.864Z,9.034729
2022-11-14T08:41:33.522Z,9.125366
2022-11-14T08:42:43.201Z,9.246216
2022-11-14T08:43:51.914Z,9.306641
2022-11-14T08:45:01.677Z,9.336853
2022-11-14T08:46:11.383Z,9.42749
2022-11-14T08:47:19.082Z,9.477844
2022-11-14T08:48:29.009Z,9.356995
2022-11-14T08:49:37.526Z,9.105225
2022-11-14T08:50:47.270Z,8.913879
2022-11-14T08:51:57.002Z,8.692322
2022-11-14T08:53:06.776Z,8.561401
2022-11-14T08:54:15.509Z,8.692322
2022-11-14T08:55:25.247Z,8.944092
2022-11-14T08:56:32.931Z,9.105225
2022-11-14T08:57:46.653Z,9.316711
2022-11-14T08:58:52.347Z,9.497986
2022-11-14T09:00:00.089Z,9.67926
2022-11-14T09:01:09.799Z,9.759827
2022-11-14T09:02:17.538Z,9.830322
2022-11-14T09:03:26.372Z,9.860535
2022-11-14T09:04:36.153Z,9.981384
2022-11-14T09:05:43.785Z,10.011597
2022-11-14T09:06:53.596Z,10.162659
2022-11-14T09:08:03.257Z,10.233154
2022-11-14T09:09:11.969Z,10.333862
2022-11-14T09:10:21.665Z,10.313721
2022-11-14T09:11:30.356Z,10.233154
2022-11-14T09:12:39.083Z,10.223083
2022-11-14T09:13:48.790Z,10.202942
2022-11-14T09:14:56.486Z,10.354004
2022-11-14T09:16:06.214Z,10.404358
2022-11-14T09:17:15.947Z,10.464783
2022-11-14T09:18:25.750Z,10.414429
2022-11-14T09:19:35.478Z,10.4245
2022-11-14T09:20:45.157Z,10.525208
2022-11-14T09:21:53.842Z,10.67627
2022-11-14T09:23:03.557Z,10.787048
2022-11-14T09:24:12.279Z,10.887756
2022-11-14T09:25:21.980Z,11.048889
2022-11-14T09:26:31.681Z,11.139526
2022-11-14T09:27:40.421Z,10.958252
2022-11-14T09:28:50.143Z,10.857544
2022-11-14T09:29:58.966Z,10.746765
2022-11-14T09:31:08.775Z,10.716553
2022-11-14T09:32:17.488Z,10.746765
2022-11-14T09:33:25.211Z,10.736694
2022-11-14T09:34:33.950Z,10.887756
2022-11-14T09:35:43.686Z,11.119385
2022-11-14T09:36:53.357Z,11.361084
2022-11-14T09:38:03.069Z,11.371155
2022-11-14T09:39:10.737Z,11.552429
2022-11-14T09:40:19.410Z,11.784058
2022-11-14T09:41:29.227Z,12.055969
2022-11-14T09:42:37.899Z,12.348022
2022-11-14T09:43:47.591Z,12.670288
2022-11-14T09:44:57.290Z,12.901917
2022-11-14T09:46:05.976Z,13.093262
2022-11-14T09:47:20.385Z,13.234253
2022-11-14T09:48:25.562Z,13.596802
2022-11-14T09:49:34.300Z,13.82843
2022-11-14T09:50:44.033Z,14.049988
2022-11-14T09:51:52.782Z,14.180908
2022-11-14T09:53:02.454Z,14.291687
2022-11-14T09:54:12.141Z,14.402466
2022-11-14T09:55:19.806Z,14.593811
2022-11-14T09:56:30.521Z,14.654236
2022-11-14T09:57:38.210Z,14.765015
2022-11-14T09:58:46.923Z,14.785156
2022-11-14T09:59:56.603Z,14.916077
2022-11-14T10:01:09.263Z,14.986572
2022-11-14T10:02:14.992Z,15.097351
2022-11-14T10:03:23.644Z,15.167847
2022-11-14T10:04:33.380Z,15.187988
2022-11-14T10:05:42.056Z,15.248413
2022-11-14T10:06:49.749Z,15.187988
2022-11-14T10:07:58.435Z,15.057068
2022-11-14T10:09:08.112Z,15.187988
2022-11-14T10:10:17.823Z,15.278625
2022-11-14T10:11:27.492Z,15.167847
2022-11-14T10:12:35.173Z,14.996643
2022-11-14T10:13:44.873Z,15.036926
2022-11-14T10:14:53.553Z,15.107422
2022-11-14T10:16:03.317Z,15.187988
2022-11-14T10:17:13.001Z,15.08728
2022-11-14T10:18:20.690Z,15.107422
2022-11-14T10:19:30.700Z,15.20813
2022-11-14T10:20:40.024Z,14.986572
2022-11-14T10:21:48.713Z,15.057068
2022-11-14T10:23:01.277Z,15.238342
2022-11-14T10:24:08.112Z,15.349121
2022-11-14T10:25:17.761Z,14.936218
2022-11-14T10:26:27.443Z,14.845581
2022-11-14T10:27:35.154Z,14.603882
2022-11-14T10:28:43.970Z,14.724731
2022-11-14T10:29:53.681Z,14.986572
2022-11-14T10:31:01.360Z,14.885864
2022-11-14T10:32:11.018Z,14.875793
2022-11-14T10:33:19.835Z,15.308838
2022-11-14T10:34:28.530Z,15.439758
2022-11-14T10:35:38.217Z,15.429688
2022-11-14T10:36:47.942Z,15.349121
2022-11-14T10:37:56.631Z,15.147705
2022-11-14T10:39:06.364Z,15.308838
2022-11-14T10:40:16.199Z,15.308838
2022-11-14T10:41:50.253Z,15.067139
2022-11-14T10:42:36.525Z,15.147705
2022-11-14T10:43:44.215Z,15.429688
2022-11-14T10:44:53.912Z,15.792236
2022-11-14T10:46:02.606Z,16.205139
2022-11-14T10:47:11.280Z,16.325989
2022-11-14T10:48:20.991Z,16.34613
2022-11-14T10:49:28.684Z,16.46698
2022-11-14T10:50:37.515Z,16.305847
2022-11-14T10:51:46.208Z,16.164856
2022-11-14T10:52:53.900Z,16.315918
2022-11-14T10:54:03.602Z,16.416626
2022-11-14T10:55:11.273Z,16.688538
2022-11-14T10:56:21.987Z,16.889954
2022-11-14T10:57:31.641Z,17.010803
2022-11-14T10:58:48.224Z,16.8396
2022-11-14T10:59:49.992Z,16.759033
2022-11-14T11:00:59.908Z,16.910095
2022-11-14T11:02:07.698Z,16.809387
2022-11-14T11:03:17.438Z,16.910095
2022-11-14T11:04:26.207Z,17.081299
2022-11-14T11:05:34.814Z,17.141724
2022-11-14T11:06:44.529Z,17.242432
2022-11-14T11:07:52.207Z,17.202148
2022-11-14T11:09:02.939Z,17.272644
2022-11-14T11:10:11.573Z,17.363281
2022-11-14T11:11:20.241Z,17.463989
2022-11-14T11:12:30.011Z,17.272644
2022-11-14T11:13:39.628Z,17.121582
2022-11-14T11:14:49.306Z,17.202148
2022-11-14T11:15:59.027Z,17.081299
2022-11-14T11:17:06.702Z,17.010803
2022-11-14T11:18:16.397Z,17.121582
2022-11-14T11:19:25.078Z,16.859741
2022-11-14T11:20:33.805Z,16.900024
2022-11-14T11:21:43.590Z,17.09137
2022-11-14T11:22:52.208Z,17.292786
2022-11-14T11:24:01.868Z,17.413635
2022-11-14T11:25:11.574Z,17.453918
2022-11-14T11:26:20.253Z,17.514343
2022-11-14T11:27:29.928Z,17.413635
2022-11-14T11:28:39.694Z,17.363281
2022-11-14T11:29:49.314Z,17.453918
2022-11-14T11:30:59.038Z,17.453918
2022-11-14T11:32:06.703Z,17.262573
2022-11-14T11:33:15.388Z,16.97052
2022-11-14T11:34:25.100Z,16.71875
2022-11-14T11:35:33.759Z,16.456909
2022-11-14T11:36:43.528Z,16.356201
2022-11-14T11:37:53.267Z,16.013794
2022-11-14T11:39:00.916Z,15.882874
2022-11-14T11:40:10.613Z,15.903015
2022-11-14T11:41:26.081Z,15.822449
2022-11-14T11:42:53.767Z,15.923157
2022-11-14T11:43:40.679Z,15.802307
2022-11-14T11:44:48.320Z,15.802307
2022-11-14T11:45:58.088Z,15.83252
2022-11-14T11:47:06.771Z,15.973511
2022-11-14T11:48:15.457Z,15.903015
2022-11-14T11:49:25.154Z,15.862732
2022-11-14T11:50:32.826Z,15.792236
2022-11-14T11:51:41.516Z,15.701599
2022-11-14T11:52:51.225Z,15.681458
2022-11-14T11:53:59.037Z,15.429688
2022-11-14T11:55:08.729Z,15.177917
2022-11-14T11:56:18.409Z,14.936218
2022-11-14T11:57:26.093Z,15.097351
2022-11-14T11:58:35.769Z,15.218201
2022-11-14T11:59:44.506Z,15.308838
2022-11-14T12:00:53.219Z,15.520325
2022-11-14T12:02:02.965Z,15.651245
2022-11-14T12:03:12.733Z,15.802307
2022-11-14T12:04:22.282Z,15.510254
2022-11-14T12:05:30.096Z,15.067139
2022-11-14T12:06:39.782Z,14.765015
2022-11-14T12:07:48.464Z,14.855652
2022-11-14T12:08:58.184Z,14.916077
2022-11-14T12:10:10.516Z,15.097351
2022-11-14T12:11:17.693Z,15.097351
2022-11-14T12:12:26.363Z,14.916077
2022-11-14T12:13:35.042Z,15.057068
2022-11-14T12:14:42.727Z,15.107422
2022-11-14T12:15:52.439Z,14.885864
2022-11-14T12:17:01.194Z,14.875793
2022-11-14T12:18:09.800Z,14.875793
2022-11-14T12:19:19.521Z,15.107422
2022-11-14T12:20:27.199Z,15.389404
2022-11-14T12:21:35.909Z,15.520325
2022-11-14T12:22:45.601Z,15.4599
2022-11-14T12:23:55.284Z,15.429688
2022-11-14T12:25:04.966Z,15.439758
2022-11-14T12:26:13.662Z,15.248413
2022-11-14T12:27:22.391Z,15.097351
2022-11-14T12:28:32.065Z,15.08728
2022-11-14T12:29:40.753Z,15.167847
2022-11-14T12:30:49.476Z,15.349121
2022-11-14T12:31:59.176Z,15.58075
2022-11-14T12:33:08.868Z,15.570679
2022-11-14T12:34:18.568Z,15.862732
2022-11-14T12:35:28.239Z,16.104431
2022-11-14T12:36:35.899Z,16.275635
2022-11-14T12:37:45.667Z,16.235352
2022-11-14T12:38:55.274Z,16.235352
2022-11-14T12:40:04.076Z,15.943298
2022-11-14T12:41:12.759Z,15.792236
2022-11-14T12:42:21.416Z,15.701599
2022-11-14T12:43:35.941Z,15.651245
2022-11-14T12:44:40.785Z,15.731812
2022-11-14T12:45:50.468Z,15.792236
2022-11-14T12:47:00.195Z,15.903015
2022-11-14T12:48:08.944Z,16.023865
2022-11-14T12:49:18.637Z,16.013794
2022-11-14T12:50:29.381Z,16.044006
2022-11-14T12:51:39.019Z,15.751953
2022-11-14T12:52:48.861Z,15.58075
2022-11-14T12:53:57.379Z,15.751953
2022-11-14T12:55:05.037Z,16.013794
2022-11-14T12:56:14.776Z,16.154785
2022-11-14T12:57:23.581Z,15.903015
2022-11-14T12:58:33.277Z,15.822449
2022-11-14T12:59:42.972Z,15.862732
2022-11-14T13:00:50.817Z,15.973511
2022-11-14T13:02:00.327Z,15.903015
2022-11-14T13:03:09.016Z,15.903015
2022-11-14T13:04:16.741Z,15.751953
2022-11-14T13:05:26.431Z,15.540466
2022-11-14T13:06:36.102Z,15.641174
2022-11-14T13:07:44.820Z,15.721741
2022-11-14T13:08:54.523Z,15.903015
2022-11-14T13:10:04.244Z,16.013794
2022-11-14T13:11:13.920Z,15.983582
2022-11-14T13:12:22.584Z,15.913086
2022-11-14T13:13:31.534Z,15.762024
2022-11-14T13:14:40.950Z,15.429688
2022-11-14T13:15:49.882Z,15.621033
2022-11-14T13:16:58.303Z,15.84259
2022-11-14T13:18:07.998Z,15.701599
2022-11-14T13:19:17.696Z,15.610962
2022-11-14T13:20:27.384Z,15.419617
2022-11-14T13:21:38.638Z,15.248413
2022-11-14T13:22:46.821Z,15.167847
2022-11-14T13:23:56.501Z,15.067139
2022-11-14T13:25:05.241Z,14.966431
2022-11-14T13:26:14.103Z,14.986572